Time;durP1;ratioP1;P1;durP2;ratioP2;P2;SDS_P1;SDS_P2;PMS_P1;PMS_P2;Temp;Humidity;BMP_temperature;BMP_pressure;BME280_temperature;BME280_humidity;BME280_pressure;Samples;Min_cycle;Max_cycle;Signal;HPM_P1;HPM_P2
2024/01/29 00:02:14;;;;;;;7.70;5.10;;;;;;;-146.27;68.22;45693.75;5059532;28;20031;-71
2024/01/29 00:04:40;;;;;;;8.85;5.75;;;;;;;-146.27;68.19;45667.88;5054073;28;20384;-71
2024/01/29 00:07:05;;;;;;;10.52;5.32;;;;;;;-146.27;69.66;45691.75;5059098;28;20013;-72
2024/01/29 00:09:31;;;;;;;11.05;6.00;;;;;;;-146.27;69.02;45651.94;5063123;28;20056;-71
2024/01/29 00:11:56;;;;;;;11.60;5.60;;;;;;;-146.27;69.47;45624.06;5067016;28;20028;-72
2024/01/29 00:14:21;;;;;;;6.82;5.20;;;;;;;-146.27;69.05;45655.94;5070188;28;20025;-71
2024/01/29 00:16:48;;;;;;;11.20;5.82;;;;;;;-146.27;69.72;45659.91;5058189;28;20107;-71
2024/01/29 00:19:13;;;;;;;11.02;5.65;;;;;;;-146.27;69.16;45685.78;5069847;28;20059;-71
2024/01/29 00:21:39;;;;;;;9.50;6.18;;;;;;;-146.27;69.62;45659.91;5069696;28;20561;-70
2024/01/29 00:24:05;;;;;;;8.88;5.20;;;;;;;-146.27;69.79;45624.06;5069398;28;20043;-72
2024/01/29 00:26:30;;;;;;;14.20;5.70;;;;;;;-146.27;70.65;45663.88;5065764;28;20082;-71
2024/01/29 00:28:56;;;;;;;9.32;5.47;;;;;;;-146.27;69.54;45634.03;5065413;28;20582;-71
2024/01/29 00:31:22;;;;;;;14.50;6.20;;;;;;;-146.27;70.04;45634.03;5069234;28;20040;-71
2024/01/29 00:33:48;;;;;;;11.98;5.85;;;;;;;-146.27;69.67;45630.06;5069689;28;20025;-71
2024/01/29 00:36:14;;;;;;;9.95;5.68;;;;;;;-146.27;69.57;45618.09;5069205;28;20028;-72
2024/01/29 00:38:40;;;;;;;10.82;5.55;;;;;;;-146.27;70.08;45649.94;5068085;28;20475;-72
2024/01/29 00:41:05;;;;;;;9.45;5.60;;;;;;;-146.27;69.82;45632.03;5069269;28;20056;-71
2024/01/29 00:43:30;;;;;;;10.27;6.07;;;;;;;-146.27;70.58;45673.84;5069702;28;20048;-71
2024/01/29 00:45:56;;;;;;;13.68;5.57;;;;;;;-146.27;70.36;45602.19;5066246;28;20512;-71
2024/01/29 00:48:23;;;;;;;9.32;5.20;;;;;;;-146.27;69.69;45634.03;5065860;28;20073;-71
2024/01/29 00:50:49;;;;;;;11.85;5.82;;;;;;;-146.27;70.29;45628.06;5062613;28;20409;-71
2024/01/29 00:53:15;;;;;;;9.05;5.80;;;;;;;-146.27;71.33;45667.88;5059305;28;20054;-71
2024/01/29 00:55:43;;;;;;;11.05;6.38;;;;;;;-146.27;71.31;45649.94;5055753;28;20083;-71
2024/01/29 00:58:09;;;;;;;8.88;5.53;;;;;;;-146.27;72.00;45647.97;5060439;28;20123;-71
2024/01/29 01:00:35;;;;;;;10.27;6.40;;;;;;;-146.27;71.86;45614.13;5068322;28;20756;-72
2024/01/29 01:03:00;;;;;;;10.52;5.35;;;;;;;-146.27;71.18;45592.22;5060231;28;20036;-72
2024/01/29 01:05:26;;;;;;;11.05;5.97;;;;;;;-146.27;70.96;45614.13;5065152;28;20554;-71
2024/01/29 01:07:51;;;;;;;11.32;6.00;;;;;;;-146.27;71.21;45606.16;5063483;28;20024;-71
2024/01/29 01:10:17;;;;;;;12.13;6.07;;;;;;;-146.27;71.72;45600.19;5060156;28;20032;-72
2024/01/29 01:12:43;;;;;;;11.18;6.63;;;;;;;-146.27;71.86;45610.16;5062829;28;20538;-72
2024/01/29 01:15:08;;;;;;;9.25;5.70;;;;;;;-146.27;72.43;45574.31;5071803;28;20111;-72
2024/01/29 01:17:34;;;;;;;10.57;6.22;;;;;;;-146.27;71.85;45566.34;5070955;28;20025;-71
2024/01/29 01:19:59;;;;;;;9.23;5.82;;;;;;;-146.27;70.89;45558.41;5055412;28;20021;-71
2024/01/29 01:22:25;;;;;;;10.73;5.78;;;;;;;-146.27;72.13;45564.38;5053528;28;20048;-71
2024/01/29 01:24:50;;;;;;;12.95;5.85;;;;;;;-146.27;72.69;45620.09;5062264;28;20036;-71
2024/01/29 01:27:16;;;;;;;14.52;6.65;;;;;;;-146.27;71.93;45568.34;5065980;28;20495;-70
2024/01/29 01:29:43;;;;;;;13.35;5.97;;;;;;;-146.27;72.06;45568.34;5065704;28;20075;-72
2024/01/29 01:32:08;;;;;;;15.77;5.85;;;;;;;-146.27;72.98;45568.34;5062029;28;20078;-70
2024/01/29 01:34:34;;;;;;;10.18;5.88;;;;;;;-146.27;72.04;45556.41;5058483;28;20025;-72
2024/01/29 01:37:00;;;;;;;10.10;5.93;;;;;;;-146.27;72.56;45548.44;5062442;28;20045;-71
2024/01/29 01:39:26;;;;;;;14.45;6.68;;;;;;;-146.27;72.69;45562.38;5070531;28;20030;-73
2024/01/29 01:41:51;;;;;;;13.00;6.22;;;;;;;-146.27;72.57;45564.38;5062213;28;20083;-72
2024/01/29 01:44:16;;;;;;;12.13;5.75;;;;;;;-146.27;73.12;45568.34;5070717;28;20032;-71
2024/01/29 01:46:42;;;;;;;9.38;5.78;;;;;;;-146.27;73.56;45564.38;5057734;28;20015;-72
2024/01/29 01:49:09;;;;;;;14.25;5.93;;;;;;;-146.27;73.37;45528.53;5060540;28;20028;-71
2024/01/29 01:51:35;;;;;;;9.18;5.82;;;;;;;-146.27;73.04;45548.44;5051728;28;20025;-71
2024/01/29 01:54:02;;;;;;;8.07;5.63;;;;;;;-146.27;73.34;45528.53;5057806;28;20086;-71
2024/01/29 01:56:28;;;;;;;12.10;6.00;;;;;;;-146.27;73.95;45532.53;5057226;28;20028;-71
2024/01/29 01:58:56;;;;;;;8.77;5.55;;;;;;;-146.27;74.86;45516.59;5059309;28;20028;-71
2024/01/29 02:01:22;;;;;;;10.70;5.68;;;;;;;-146.27;74.51;45496.69;5060013;28;20435;-71
2024/01/29 02:03:48;;;;;;;12.95;5.88;;;;;;;-146.27;74.47;45506.66;5062343;28;20034;-72
2024/01/29 02:06:13;;;;;;;9.57;5.95;;;;;;;-146.27;74.17;45472.81;5064438;28;20056;-71
2024/01/29 02:08:40;;;;;;;9.23;5.35;;;;;;;-146.27;73.99;45433.00;5068901;28;20024;-73
2024/01/29 02:11:06;;;;;;;9.00;6.03;;;;;;;-146.27;73.53;45468.84;5062752;28;20127;-70
2024/01/29 02:13:31;;;;;;;9.68;5.85;;;;;;;-146.27;73.48;45494.72;5070653;28;20062;-72
2024/01/29 02:15:57;;;;;;;10.50;6.13;;;;;;;-146.27;73.59;45464.84;5071748;28;20393;-72
2024/01/29 02:18:22;;;;;;;10.80;5.57;;;;;;;-146.27;74.23;45462.88;5071322;28;20063;-72
2024/01/29 02:20:48;;;;;;;9.82;6.45;;;;;;;-146.27;74.18;45460.88;5070015;28;20066;-71
2024/01/29 02:23:13;;;;;;;13.32;6.28;;;;;;;-146.27;73.88;45444.94;5069956;28;20051;-72
2024/01/29 02:25:39;;;;;;;13.48;5.70;;;;;;;-146.27;73.69;45444.94;5070912;28;20085;-71
2024/01/29 02:28:04;;;;;;;12.57;6.10;;;;;;;-146.27;74.36;45446.94;5066533;28;20115;-72
2024/01/29 02:30:30;;;;;;;7.22;5.35;;;;;;;-146.27;74.50;45431.03;5071627;28;20032;-71
2024/01/29 02:32:55;;;;;;;10.27;6.10;;;;;;;-146.27;75.03;45440.97;5069788;28;20546;-71
2024/01/29 02:35:20;;;;;;;9.10;6.18;;;;;;;-146.27;75.43;45456.91;5065366;28;20017;-71
2024/01/29 02:37:46;;;;;;;10.73;6.28;;;;;;;-146.27;75.54;45429.03;5058382;28;20028;-72
2024/01/29 02:40:11;;;;;;;9.63;5.93;;;;;;;-146.27;75.56;45433.00;5069550;28;20036;-71
2024/01/29 02:42:37;;;;;;;9.68;5.70;;;;;;;-146.27;75.54;45437.00;5068398;28;20094;-71
2024/01/29 02:45:04;;;;;;;9.48;6.03;;;;;;;-146.27;75.94;45409.13;5067057;28;20029;-71
2024/01/29 02:47:29;;;;;;;9.80;5.88;;;;;;;-146.27;75.48;45385.25;5070425;28;20480;-71
2024/01/29 02:49:54;;;;;;;10.77;6.50;;;;;;;-146.27;75.26;45433.00;5056504;28;20089;-71
2024/01/29 02:52:20;;;;;;;11.55;6.22;;;;;;;-146.27;76.36;45407.13;5051492;28;20025;-71
2024/01/29 02:54:46;;;;;;;13.45;6.15;;;;;;;-146.27;76.11;45369.31;5060143;28;20090;-72
2024/01/29 02:57:12;;;;;;;13.93;6.82;;;;;;;-146.27;76.41;45369.31;5069268;28;20483;-71
2024/01/29 02:59:37;;;;;;;11.52;6.05;;;;;;;-146.27;75.65;45369.31;5068521;28;20051;-71
2024/01/29 03:02:03;;;;;;;11.23;7.07;;;;;;;-146.27;75.64;45373.31;5066980;28;20043;-71
2024/01/29 03:04:29;;;;;;;11.27;6.35;;;;;;;-146.27;76.36;45345.44;5061947;28;20039;-71
2024/01/29 03:06:54;;;;;;;13.43;6.53;;;;;;;-146.27;76.20;45369.31;5061765;28;20017;-71
2024/01/29 03:09:19;;;;;;;10.48;6.35;;;;;;;-146.27;75.89;45363.34;5068984;28;20016;-70
2024/01/29 03:11:45;;;;;;;13.45;6.00;;;;;;;-146.27;76.03;45361.38;5070144;28;20032;-71
2024/01/29 03:14:10;;;;;;;12.02;6.50;;;;;;;-146.27;76.09;45347.44;5067983;28;20031;-71
2024/01/29 03:16:36;;;;;;;12.20;6.25;;;;;;;-146.27;76.20;45343.44;5063574;28;20020;-71
2024/01/29 03:19:01;;;;;;;11.95;6.22;;;;;;;-146.27;76.56;45307.63;5068452;28;20028;-72
2024/01/29 03:21:30;;;;;;;11.55;6.47;;;;;;;-146.27;76.81;45339.47;5050806;28;20120;-71
2024/01/29 03:23:56;;;;;;;11.15;7.35;;;;;;;-146.27;76.82;45291.72;5051611;28;20036;-71
2024/01/29 03:26:21;;;;;;;9.43;6.75;;;;;;;-146.27;76.76;45309.63;5070356;28;20024;-72
2024/01/29 03:28:47;;;;;;;11.70;7.97;;;;;;;-146.27;76.85;45297.69;5065535;28;20036;-73
2024/01/29 03:31:12;;;;;;;26.77;8.38;;;;;;;-146.27;77.72;45263.84;5053059;28;20029;-71
2024/01/29 03:33:38;;;;;;;11.13;7.63;;;;;;;-146.27;78.03;45247.91;5070083;28;20025;-71
2024/01/29 03:36:04;;;;;;;11.77;7.18;;;;;;;-146.27;77.81;45228.03;5059951;28;20037;-71
2024/01/29 03:38:30;;;;;;;13.65;7.50;;;;;;;-146.27;77.76;45218.06;5062107;28;20028;-71
2024/01/29 03:40:55;;;;;;;13.10;7.68;;;;;;;-146.27;77.77;45226.03;5061886;28;20613;-72
2024/01/29 03:43:20;;;;;;;10.43;7.10;;;;;;;-146.27;78.11;45166.31;5060200;28;20107;-71
2024/01/29 03:45:47;;;;;;;14.40;7.20;;;;;;;-146.27;77.87;45176.28;5054752;28;20033;-71
2024/01/29 03:48:12;;;;;;;11.85;7.43;;;;;;;-146.27;78.21;45178.28;5058398;28;20386;-71
2024/01/29 03:50:38;;;;;;;11.18;6.88;;;;;;;-146.27;77.82;45158.38;5060487;28;20025;-73
2024/01/29 03:53:03;;;;;;;9.90;6.75;;;;;;;-146.27;77.61;45142.44;5059089;28;20032;-71
2024/01/29 03:55:29;;;;;;;10.93;6.85;;;;;;;-146.27;78.24;45176.28;5057122;28;20455;-71
2024/01/29 03:57:54;;;;;;;13.75;6.95;;;;;;;-146.27;77.81;45178.28;5056760;28;20401;-71
2024/01/29 04:00:22;;;;;;;9.43;6.20;;;;;;;-146.27;78.65;45178.28;5063827;28;20029;-71
2024/01/29 04:02:49;;;;;;;12.93;6.45;;;;;;;-146.27;79.23;45116.56;5062476;28;20044;-71
2024/01/29 04:05:15;;;;;;;9.88;6.65;;;;;;;-146.27;78.66;45126.53;5055027;28;20412;-72
2024/01/29 04:07:41;;;;;;;11.77;7.10;;;;;;;-146.27;78.89;45114.59;5061716;28;20017;-71
2024/01/29 04:10:06;;;;;;;10.32;5.93;;;;;;;-146.27;78.81;45090.72;5068094;28;20060;-71
2024/01/29 04:12:32;;;;;;;11.68;6.43;;;;;;;-146.27;78.94;45078.75;5069658;28;20025;-72
2024/01/29 04:14:57;;;;;;;12.50;7.35;;;;;;;-146.27;79.33;45038.97;5059034;28;20162;-71
2024/01/29 04:17:22;;;;;;;13.30;6.97;;;;;;;-146.27;79.28;45050.91;5064925;28;20431;-71
2024/01/29 04:19:48;;;;;;;18.88;7.35;;;;;;;-146.27;79.05;45042.94;5066901;28;20512;-70
2024/01/29 04:22:13;;;;;;;9.00;6.57;;;;;;;-146.27;79.31;45005.13;5061961;28;20021;-71
2024/01/29 04:24:39;;;;;;;10.68;6.68;;;;;;;-146.27;79.69;44967.31;5059660;28;20055;-71
2024/01/29 04:27:04;;;;;;;14.65;6.45;;;;;;;-146.27;79.69;44969.31;5061001;28;20138;-73
2024/01/29 04:29:30;;;;;;;10.25;6.63;;;;;;;-146.27;79.29;44987.22;5060813;28;20045;-70
2024/01/29 04:31:55;;;;;;;11.00;6.43;;;;;;;-146.27;79.47;44987.22;5063543;28;20039;-71
2024/01/29 04:34:20;;;;;;;11.55;6.28;;;;;;;-146.27;80.15;44959.38;5065388;28;20029;-71
2024/01/29 04:36:46;;;;;;;11.73;6.43;;;;;;;-146.27;79.88;44939.47;5055835;28;20025;-72
2024/01/29 04:39:11;;;;;;;11.65;7.28;;;;;;;-146.27;79.88;44967.31;5065841;28;20496;-71
2024/01/29 04:41:37;;;;;;;16.08;7.40;;;;;;;-146.27;80.30;44915.59;5060549;28;20055;-70
2024/01/29 04:44:02;;;;;;;10.23;6.40;;;;;;;-146.27;80.33;44911.59;5067542;28;20069;-70
2024/01/29 04:46:28;;;;;;;11.90;6.72;;;;;;;-146.27;80.25;44877.78;5067444;28;20484;-72
2024/01/29 04:48:53;;;;;;;10.27;6.60;;;;;;;-146.27;80.28;44865.84;5069380;28;20032;-72
2024/01/29 04:51:20;;;;;;;12.57;7.20;;;;;;;-146.27;80.19;44837.97;5063239;28;20024;-71
2024/01/29 04:53:46;;;;;;;10.60;7.43;;;;;;;-146.27;80.23;44814.09;5060702;28;20033;-71
2024/01/29 04:56:12;;;;;;;12.40;7.35;;;;;;;-146.27;80.26;44843.94;5057621;28;20496;-71
2024/01/29 04:58:37;;;;;;;14.95;8.63;;;;;;;-146.27;80.37;44839.97;5056220;28;20057;-72
2024/01/29 05:01:03;;;;;;;12.90;7.60;;;;;;;-146.27;80.38;44808.13;5064624;28;20552;-71
2024/01/29 05:03:29;;;;;;;17.08;8.07;;;;;;;-146.27;80.18;44828.03;5059375;28;20634;-71
2024/01/29 05:05:55;;;;;;;14.32;8.65;;;;;;;-146.27;80.72;44790.22;5060201;28;20380;-71
2024/01/29 05:08:20;;;;;;;13.45;8.38;;;;;;;-146.27;81.63;44716.59;5070541;28;20468;-71
2024/01/29 05:10:46;;;;;;;14.18;8.68;;;;;;;-146.27;81.01;44700.66;5063095;28;20050;-71
2024/01/29 05:13:12;;;;;;;13.57;7.85;;;;;;;-146.27;80.37;44704.66;5061715;28;20051;-71
2024/01/29 05:15:37;;;;;;;11.48;7.65;;;;;;;-146.27;80.83;44706.63;5063578;28;20029;-71
2024/01/29 05:18:03;;;;;;;13.48;8.02;;;;;;;-146.27;81.65;44672.81;5071164;28;20039;-71
2024/01/29 05:20:29;;;;;;;13.38;7.13;;;;;;;-146.27;81.40;44644.94;5069180;28;20032;-70
2024/01/29 05:22:55;;;;;;;13.40;7.95;;;;;;;-146.27;80.74;44640.97;5068593;28;20030;-71
2024/01/29 05:25:21;;;;;;;11.30;7.03;;;;;;;-146.27;80.50;44692.72;5065702;28;20392;-71
2024/01/29 05:27:47;;;;;;;13.88;7.15;;;;;;;-146.27;81.43;44698.69;5072570;28;20029;-71
2024/01/29 05:30:15;;;;;;;12.98;8.23;;;;;;;-146.27;81.23;44648.94;5055674;28;20041;-70
2024/01/29 05:32:40;;;;;;;12.85;8.18;;;;;;;-146.27;80.83;44664.84;5067735;28;20425;-71
2024/01/29 05:35:06;;;;;;;15.05;8.50;;;;;;;-146.27;81.47;44672.81;5062107;28;20104;-71
2024/01/29 05:37:33;;;;;;;14.32;9.38;;;;;;;-146.27;81.76;44619.09;5072190;28;20028;-71
2024/01/29 05:40:00;;;;;;;14.90;9.13;;;;;;;-146.27;80.83;44611.13;5070583;28;20029;-71
2024/01/29 05:42:26;;;;;;;13.57;9.63;;;;;;;-146.27;81.33;44642.97;5066087;28;20024;-70
2024/01/29 05:44:51;;;;;;;14.38;9.18;;;;;;;-146.27;81.42;44597.19;5064457;28;20021;-71
2024/01/29 05:47:16;;;;;;;14.65;9.57;;;;;;;-146.27;80.82;44589.25;5070743;28;20112;-71
2024/01/29 05:49:42;;;;;;;14.85;8.77;;;;;;;-146.27;80.68;44613.13;5066786;28;20021;-71
2024/01/29 05:52:07;;;;;;;12.55;8.77;;;;;;;-146.27;81.38;44557.41;5068601;28;20116;-71
2024/01/29 05:54:33;;;;;;;14.27;7.75;;;;;;;-146.27;81.04;44563.38;5067844;28;20100;-70
2024/01/29 05:56:59;;;;;;;13.88;8.35;;;;;;;-146.27;81.03;44589.25;5067905;28;20112;-70
2024/01/29 05:59:25;;;;;;;16.50;9.20;;;;;;;-146.27;81.54;44551.44;5065214;28;20029;-69
2024/01/29 06:01:50;;;;;;;11.90;8.23;;;;;;;-146.27;81.34;44503.69;5065934;28;20514;-70
2024/01/29 06:04:15;;;;;;;14.45;8.98;;;;;;;-146.27;81.79;44501.69;5068364;28;20095;-71
2024/01/29 06:06:41;;;;;;;13.07;8.07;;;;;;;-146.27;81.87;44477.81;5069111;28;20507;-70
2024/01/29 06:09:07;;;;;;;12.50;8.35;;;;;;;-146.27;81.65;44489.75;5068609;28;20020;-70
2024/01/29 06:11:32;;;;;;;11.45;7.88;;;;;;;-146.27;81.44;44505.66;5065613;28;20021;-70
2024/01/29 06:13:59;;;;;;;16.77;8.00;;;;;;;-146.27;82.36;44509.66;5065269;28;20103;-70
2024/01/29 06:16:25;;;;;;;13.45;9.02;;;;;;;-146.27;82.09;44481.78;5068321;28;20032;-70
2024/01/29 06:18:51;;;;;;;15.00;8.98;;;;;;;-146.27;81.94;44443.97;5068816;28;20033;-69
2024/01/29 06:21:16;;;;;;;13.85;8.18;;;;;;;-146.27;82.24;44442.00;5063079;28;20024;-70
2024/01/29 06:23:42;;;;;;;14.77;8.82;;;;;;;-146.27;81.77;44440.00;5067168;28;20038;-71
2024/01/29 06:26:07;;;;;;;13.15;8.43;;;;;;;-146.27;81.65;44469.84;5065369;28;20120;-70
2024/01/29 06:28:33;;;;;;;14.88;8.70;;;;;;;-146.27;81.69;44461.91;5057943;28;20076;-70
2024/01/29 06:30:58;;;;;;;12.95;8.55;;;;;;;-146.27;81.84;44475.81;5056736;28;20086;-69
2024/01/29 06:33:24;;;;;;;13.98;8.95;;;;;;;-146.27;81.84;44457.91;5063952;28;20079;-69
2024/01/29 06:35:50;;;;;;;12.63;8.27;;;;;;;-146.27;82.13;44493.72;5055102;28;20029;-70
2024/01/29 06:38:15;;;;;;;12.55;8.48;;;;;;;-146.27;82.28;44434.03;5070701;28;20043;-71
2024/01/29 06:40:41;;;;;;;11.35;8.80;;;;;;;-146.27;82.76;44414.13;5070089;28;20154;-71
2024/01/29 06:43:07;;;;;;;13.40;8.65;;;;;;;-146.27;83.27;44390.25;5080924;28;20066;-71
2024/01/29 06:45:32;;;;;;;13.68;9.10;;;;;;;-146.27;82.85;44354.44;5069748;28;20487;-70
2024/01/29 06:47:58;;;;;;;14.57;8.77;;;;;;;-146.27;82.90;44330.56;5071417;28;20021;-72
2024/01/29 06:50:23;;;;;;;16.67;8.77;;;;;;;-146.27;83.09;44302.72;5070857;28;20031;-71
2024/01/29 06:52:49;;;;;;;17.98;8.43;;;;;;;-146.27;83.27;44296.75;5068133;28;20033;-71
2024/01/29 06:55:15;;;;;;;12.32;7.88;;;;;;;-146.27;83.45;44262.91;5065426;28;20024;-72
2024/01/29 06:57:40;;;;;;;15.05;8.15;;;;;;;-146.27;82.71;44231.09;5061017;28;20012;-73
2024/01/29 07:00:06;;;;;;;13.65;8.02;;;;;;;-146.27;83.57;44203.22;5063456;28;20060;-72
2024/01/29 07:02:32;;;;;;;15.88;8.05;;;;;;;-146.27;83.80;44219.16;5069497;28;20097;-71
2024/01/29 07:04:57;;;;;;;12.70;8.32;;;;;;;-146.27;83.89;44143.53;5064805;28;20025;-71
2024/01/29 07:07:23;;;;;;;17.17;8.65;;;;;;;-146.27;83.93;44058.00;5069033;28;20032;-72
2024/01/29 07:09:53;;;;;;;18.27;8.30;;;;;;;-146.27;84.13;44089.81;5069625;28;20028;-71
2024/01/29 07:12:18;;;;;;;15.30;8.75;;;;;;;-146.27;83.81;44077.88;5069559;28;20082;-72
2024/01/29 07:14:43;;;;;;;12.35;7.50;;;;;;;-146.27;84.31;44036.09;5069763;28;20397;-71
2024/01/29 07:17:09;;;;;;;16.83;8.05;;;;;;;-146.27;84.52;43954.53;5069149;28;20471;-72
2024/01/29 07:19:34;;;;;;;14.38;8.43;;;;;;;-146.27;84.73;43932.66;5069460;28;20051;-72
2024/01/29 07:22:04;;;;;;;12.35;7.50;;;;;;;-146.27;83.93;43928.69;5068775;28;20039;-71
2024/01/29 07:24:33;;;;;;;14.30;9.52;;;;;;;-146.27;84.13;43916.75;5070649;28;20032;-70
2024/01/29 07:26:59;;;;;;;15.30;8.90;;;;;;;-146.27;84.48;43890.88;5068404;28;20591;-72
2024/01/29 07:29:26;;;;;;;17.73;8.63;;;;;;;-146.27;84.19;43896.84;5070053;28;20116;-70
2024/01/29 07:31:53;;;;;;;11.98;8.32;;;;;;;-146.27;83.22;43916.75;5063022;28;20113;-72
2024/01/29 07:34:18;;;;;;;15.73;10.20;;;;;;;-146.27;83.34;43956.53;5070083;28;20024;-72
2024/01/29 07:36:44;;;;;;;18.65;9.80;;;;;;;-146.27;83.36;43932.66;5067879;28;20027;-72
2024/01/29 07:39:13;;;;;;;16.52;11.63;;;;;;;-146.27;83.57;43964.50;5070104;28;20116;-72
2024/01/29 07:41:41;;;;;;;17.60;11.30;;;;;;;-146.27;83.75;43956.53;5069009;28;20031;-71
2024/01/29 07:44:07;;;;;;;19.17;12.20;;;;;;;-146.27;83.36;43958.53;5070125;28;20035;-71
2024/01/29 07:46:33;;;;;;;18.95;13.30;;;;;;;-146.27;83.41;43982.38;5070163;28;20021;-71
2024/01/29 07:49:03;;;;;;;19.13;14.15;;;;;;;-146.27;83.24;43986.38;5066690;28;20081;-70
2024/01/29 07:51:29;;;;;;;21.63;14.15;;;;;;;-146.27;83.67;43988.34;5067456;28;20020;-72
2024/01/29 07:53:54;;;;;;;19.45;14.23;;;;;;;-146.27;83.96;43992.34;5070008;28;20028;-71
2024/01/29 07:56:20;;;;;;;23.38;14.32;;;;;;;-146.27;84.07;43960.50;5069970;28;20545;-72
2024/01/29 07:58:45;;;;;;;17.90;12.95;;;;;;;-146.27;83.81;43996.31;5069319;28;20036;-71
2024/01/29 08:01:11;;;;;;;21.35;12.73;;;;;;;-146.27;83.75;43986.38;5070386;28;20024;-72
2024/01/29 08:03:36;;;;;;;19.92;12.93;;;;;;;-146.27;83.28;43990.34;5068408;28;20323;-73
2024/01/29 08:06:02;;;;;;;20.50;13.48;;;;;;;-146.27;82.90;44020.19;5069496;28;20104;-71
2024/01/29 08:08:28;;;;;;;18.20;13.25;;;;;;;-146.27;83.62;44004.28;5070055;28;20024;-71
2024/01/29 08:10:57;;;;;;;22.98;11.90;;;;;;;-146.27;83.64;44012.22;5068380;28;20050;-70
2024/01/29 08:13:22;;;;;;;22.10;12.35;;;;;;;-146.27;83.15;44024.16;5063446;28;20027;-71
2024/01/29 08:15:48;;;;;;;20.13;12.48;;;;;;;-146.27;83.31;44042.06;5069836;28;20025;-71
2024/01/29 08:18:13;;;;;;;20.88;12.32;;;;;;;-146.27;83.31;44059.97;5065646;28;20376;-72
2024/01/29 08:20:38;;;;;;;19.52;11.45;;;;;;;-146.27;82.95;44063.97;5062437;28;20401;-71
2024/01/29 08:23:04;;;;;;;16.92;10.68;;;;;;;-146.27;82.91;44109.72;5073775;28;20540;-69
2024/01/29 08:25:29;;;;;;;16.77;10.30;;;;;;;-146.27;82.82;44135.59;5073344;28;20119;-72
2024/01/29 08:27:55;;;;;;;21.35;10.95;;;;;;;-146.27;83.01;44115.69;5073136;28;20013;-75
2024/01/29 08:30:20;;;;;;;18.80;10.70;;;;;;;-146.27;83.15;44175.38;5072854;28;20059;-70
2024/01/29 08:32:46;;;;;;;16.80;9.95;;;;;;;-146.27;83.08;44159.47;5070461;28;20119;-74
2024/01/29 08:35:11;;;;;;;18.73;11.27;;;;;;;-146.27;82.90;44179.34;5073125;28;20024;-71
2024/01/29 08:37:36;;;;;;;19.58;10.93;;;;;;;-146.27;83.36;44187.31;5072765;28;20024;-72
2024/01/29 08:40:02;;;;;;;16.60;9.90;;;;;;;-146.27;82.76;44183.34;5073758;28;20033;-71
2024/01/29 08:42:28;;;;;;;17.45;10.98;;;;;;;-146.27;82.82;44189.31;5073696;28;20027;-72
2024/01/29 08:44:56;;;;;;;19.40;9.55;;;;;;;-146.27;83.09;44221.13;5069101;28;20648;-72
2024/01/29 08:47:24;;;;;;;17.20;10.45;;;;;;;-146.27;83.23;44195.28;5072394;28;20012;-72
2024/01/29 08:49:52;;;;;;;18.40;11.32;;;;;;;-146.27;84.02;44227.09;5087776;28;20043;-72
2024/01/29 08:52:18;;;;;;;17.42;10.43;;;;;;;-146.27;83.81;44147.53;5069067;28;21430;-73
2024/01/29 08:54:44;;;;;;;15.88;11.43;;;;;;;-146.27;82.88;44167.41;5063211;28;20033;-70
2024/01/29 08:57:09;;;;;;;17.95;10.63;;;;;;;-146.27;82.90;44175.38;5071315;28;20012;-70
2024/01/29 08:59:35;;;;;;;18.98;11.20;;;;;;;-146.27;82.53;44151.50;5072582;28;20480;-70
2024/01/29 09:02:00;;;;;;;18.40;11.02;;;;;;;-146.27;83.35;44211.19;5083807;28;20404;-71
2024/01/29 09:04:26;;;;;;;20.45;10.52;;;;;;;-146.27;82.64;44151.50;5072683;28;20419;-70
2024/01/29 09:06:52;;;;;;;15.23;9.90;;;;;;;-146.27;82.53;44151.50;5071824;28;20024;-70
2024/01/29 09:09:18;;;;;;;18.48;9.32;;;;;;;-146.27;82.79;44159.47;5071802;28;20036;-71
2024/01/29 09:11:43;;;;;;;16.35;10.07;;;;;;;-146.27;82.44;44163.44;5068126;28;20377;-70
2024/01/29 09:14:08;;;;;;;16.45;9.85;;;;;;;-146.27;82.18;44099.78;5072150;28;20029;-70
2024/01/29 09:16:34;;;;;;;18.15;10.07;;;;;;;-146.27;81.88;44113.69;5065880;28;20036;-70
2024/01/29 09:18:59;;;;;;;19.65;9.50;;;;;;;-146.27;81.68;44131.59;5070253;28;20031;-71
2024/01/29 09:21:25;;;;;;;17.35;9.93;;;;;;;-146.27;81.71;44131.59;5064273;28;20340;-71
2024/01/29 09:23:51;;;;;;;15.52;9.25;;;;;;;-146.27;82.85;44169.41;5068383;28;20040;-69
2024/01/29 09:26:16;;;;;;;15.55;8.90;;;;;;;-146.27;82.57;44149.50;5070826;28;20500;-70
2024/01/29 09:28:43;;;;;;;16.92;9.73;;;;;;;-146.27;82.15;44095.78;5068558;28;20037;-70
2024/01/29 09:31:09;;;;;;;18.05;9.10;;;;;;;-146.27;81.60;44141.56;5070955;28;20111;-71
2024/01/29 09:33:35;;;;;;;14.63;8.98;;;;;;;-146.27;81.47;44115.69;5070486;28;20033;-72
2024/01/29 09:36:00;;;;;;;13.65;9.35;;;;;;;-146.27;81.19;44147.53;5068531;28;20036;-70
2024/01/29 09:38:25;;;;;;;17.85;9.43;;;;;;;-146.27;80.13;44109.72;5070585;28;20032;-70
2024/01/29 09:40:51;;;;;;;13.05;8.52;;;;;;;-146.27;79.98;44151.50;5071171;28;20048;-70
2024/01/29 09:43:19;;;;;;;18.17;9.50;;;;;;;-146.27;79.83;44115.69;5068606;28;20064;-72
2024/01/29 09:45:45;;;;;;;13.82;8.35;;;;;;;-146.27;79.17;44147.53;5071354;28;20032;-70
2024/01/29 09:48:14;;;;;;;20.00;8.93;;;;;;;-146.27;79.46;44189.31;5075704;28;20039;-70
2024/01/29 09:50:42;;;;;;;17.10;9.10;;;;;;;-146.27;79.23;44197.25;5091326;28;20106;-70
2024/01/29 09:53:11;;;;;;;17.80;9.07;;;;;;;-146.27;79.49;44203.22;5091597;28;20479;-70
2024/01/29 09:55:36;;;;;;;15.13;8.57;;;;;;;-146.27;78.71;44183.34;5092869;28;20024;-70
2024/01/29 09:58:01;;;;;;;15.30;9.30;;;;;;;-146.27;78.87;44235.06;5088688;28;20415;-70
2024/01/29 10:00:27;;;;;;;13.45;8.00;;;;;;;-146.27;77.81;44193.28;5092528;28;20093;-70
2024/01/29 10:02:54;;;;;;;14.45;8.95;;;;;;;-146.27;77.26;44227.09;5081657;28;20063;-69
2024/01/29 10:05:19;;;;;;;16.55;8.63;;;;;;;-146.27;76.96;44159.47;5073990;28;20093;-70
2024/01/29 10:07:45;;;;;;;15.77;8.95;;;;;;;-146.27;76.27;44157.47;5071770;28;20025;-69
2024/01/29 10:10:11;;;;;;;14.85;8.20;;;;;;;-146.27;76.99;44231.09;5070108;28;20055;-70
2024/01/29 10:12:37;;;;;;;15.25;8.25;;;;;;;-146.27;76.06;44129.63;5064239;28;20440;-70
2024/01/29 10:15:03;;;;;;;15.75;8.23;;;;;;;-146.27;75.93;44163.44;5069833;28;20024;-70
2024/01/29 10:17:29;;;;;;;17.75;8.95;;;;;;;-146.27;76.33;44207.22;5071657;28;20021;-70
2024/01/29 10:19:54;;;;;;;25.85;8.65;;;;;;;-146.27;76.06;44207.22;5061294;28;20032;-71
2024/01/29 10:22:24;;;;;;;15.60;9.13;;;;;;;-146.27;77.12;44137.56;5065516;28;20028;-72
2024/01/29 10:25:03;;;;;;;18.08;9.00;;;;;;;-146.27;77.21;44252.97;5065373;28;20028;-71
2024/01/29 10:27:28;;;;;;;17.13;8.63;;;;;;;-146.27;75.92;44183.34;5066794;28;20103;-70
2024/01/29 10:29:54;;;;;;;14.23;8.77;;;;;;;-146.27;74.44;44079.88;5069278;28;20040;-71
2024/01/29 10:32:20;;;;;;;12.75;8.55;;;;;;;-146.27;73.48;44219.16;5067783;28;20056;-70
2024/01/29 10:34:46;;;;;;;14.30;8.63;;;;;;;-146.27;75.37;44243.03;5067065;28;20032;-71
2024/01/29 10:37:14;;;;;;;14.80;8.93;;;;;;;-146.27;74.36;44125.63;5065445;28;20085;-70
2024/01/29 10:39:41;;;;;;;13.55;7.90;;;;;;;-146.27;74.04;44256.94;5060430;28;20103;-70
2024/01/29 10:42:07;;;;;;;16.33;9.23;;;;;;;-146.27;73.42;44159.47;5064832;28;20028;-69
2024/01/29 10:44:35;;;;;;;16.98;9.40;;;;;;;-146.27;72.35;44139.56;5065491;28;20016;-71
2024/01/29 10:47:06;;;;;;;15.75;9.45;;;;;;;-146.27;71.53;44079.88;5067331;28;20024;-70
2024/01/29 10:49:33;;;;;;;16.23;9.20;;;;;;;-146.27;71.24;44143.53;5062037;28;20115;-71
2024/01/29 10:52:00;;;;;;;14.95;8.77;;;;;;;-146.27;71.88;44219.16;5067945;28;20028;-70
2024/01/29 10:54:26;;;;;;;15.02;9.63;;;;;;;-146.27;70.46;44107.72;5065388;28;20020;-71
2024/01/29 10:56:51;;;;;;;14.23;9.93;;;;;;;-146.27;70.38;44127.63;5067395;28;20035;-70
2024/01/29 10:59:20;;;;;;;19.65;9.77;;;;;;;-146.27;69.51;44157.47;5064402;28;20115;-71
2024/01/29 11:01:47;;;;;;;18.17;10.60;;;;;;;-146.27;68.75;44135.59;5064996;28;20090;-70
2024/01/29 11:04:16;;;;;;;18.50;8.88;;;;;;;-146.27;67.71;44161.44;5066780;28;20033;-71